Flight Track Log - Related Links

Times and Time Zones

All times are in EST time to prevent confusion due to time zone crossing. See the SWA2596 flight status page for this flight to view local times or setup timezone preferences in your user account.

Time Position Orientation Groundspeed Altitude Reporting Facility
EST Latitude Longitude Course Direction KTS MPH feet Rate Location/Type
Tue 10:09:02 PM 41.7456 -87.7781 180° South 172 198 3,000  Level Chicago Center
Tue 10:10:03 PM 41.6856 -87.7947 192° South 217 250 5,600 3,049 Climbing Chicago Center
Tue 10:11:04 PM 41.6142 -87.8172 193° South 253 291 9,200 3,492 Climbing Chicago Center
Tue 10:12:05 PM 41.5392 -87.8397 193° South 269 310 12,700 2,732 Climbing Chicago Center
Tue 10:13:07 PM 41.4542 -87.8667 193° South 300 345 14,800 2,244 Climbing Chicago Center
Tue 10:14:00 PM 41.1936 -87.8833 180° South  Level FlightAware Approximate
Tue 10:14:08 PM 41.3531 -87.8844 188° South 355 409 17,300  Level Chicago Center
Tue 10:15:09 PM 41.2458 -87.8936 184° South 378 435 19,400 2,410 Climbing Chicago Center
Tue 10:16:10 PM 41.1117 -87.8886 178° South 397 457 22,200 2,311 Climbing Chicago Center
Tue 10:17:11 PM 40.9942 -87.8856 179° South 416 479 24,100 1,869 Climbing Chicago Center
Tue 10:18:12 PM 40.8736 -87.8808 178° South 430 495 26,000 1,756 Climbing Chicago Center
Tue 10:19:14 PM 40.7511 -87.8764 178° South 438 504 27,700 1,659 Climbing Chicago Center
Tue 10:20:15 PM 40.6242 -87.8733 179° South 452 520 29,400 2,164 Climbing Chicago Center
Tue 10:21:16 PM 40.5011 -87.8686 178° South 446 513 32,100 2,607 Climbing Chicago Center
Tue 10:22:17 PM 40.3858 -87.8658 179° South 421 484 34,700 1,869 Climbing Chicago Center
Tue 10:23:18 PM 40.2750 -87.8567 176° South 402 463 35,900 984 Climbing Chicago Center
Tue 10:24:19 PM 40.1550 -87.8364 173° South 413 475 36,700 537 Climbing Chicago Center
Tue 10:25:21 PM 40.0358 -87.8208 174° South 419 482 37,000 146 Climbing Indianapolis Center
Tue 10:26:22 PM 39.9208 -87.8019 173° South 419 482 37,000  Level Indianapolis Center
Tue 10:27:23 PM 39.8089 -87.7861 174° South 412 474 37,000  Level Indianapolis Center
Tue 10:28:24 PM 39.6983 -87.7694 173° South 405 466 37,000  Level Indianapolis Center
Tue 10:29:25 PM 39.5878 -87.7528 173° South 403 464 37,000  Level Indianapolis Center
Tue 10:30:26 PM 39.4544 -87.7333 174° South 403 464 37,000  Level Indianapolis Center
Tue 10:31:27 PM 39.3461 -87.7181 174° South 403 464 37,000  Level Indianapolis Center
Tue 10:32:28 PM 39.2356 -87.7014 173° South 400 460 37,000  Level Indianapolis Center
Tue 10:33:28 PM 39.1242 -87.6853 174° South 400 460 37,000  Level Indianapolis Center
Tue 10:34:29 PM 39.0131 -87.6689 173° South 401 461 37,000  Level Indianapolis Center
Tue 10:35:30 PM 38.9033 -87.6525 173° South 398 458 37,000  Level Indianapolis Center
Tue 10:36:31 PM 38.7925 -87.6367 174° South 398 458 37,000  Level Indianapolis Center
Tue 10:37:32 PM 38.6822 -87.6203 173° South 399 459 37,000  Level Indianapolis Center
Tue 10:38:33 PM 38.5728 -87.6053 174° South 396 456 37,000  Level Indianapolis Center
Tue 10:39:34 PM 38.4636 -87.5892 173° South 395 455 37,000  Level Indianapolis Center
Tue 10:40:35 PM 38.3539 -87.5733 174° South 397 457 37,000  Level Indianapolis Center
Tue 10:41:36 PM 38.2447 -87.5578 174° South 396 456 37,000  Level Indianapolis Center
Tue 10:42:36 PM 38.1136 -87.5392 174° South 396 456 37,000  Level Indianapolis Center
Tue 10:43:37 PM 38.0042 -87.5233 173° South 396 456 37,000  Level Indianapolis Center
Tue 10:44:38 PM 37.8953 -87.5092 174° South 394 453 37,000  Level Indianapolis Center
Tue 10:45:39 PM 37.7869 -87.4928 173° South 392 451 37,000  Level Indianapolis Center
Tue 10:46:40 PM 37.6883 -87.4781 173° South 392 451 37,000  Level Indianapolis Center
Tue 10:47:41 PM 37.5800 -87.4628 174° South 389 448 37,000  Level Indianapolis Center
Tue 10:48:42 PM 37.4717 -87.4489 174° South 388 447 37,000  Level Indianapolis Center
Tue 10:49:43 PM 37.3647 -87.4333 173° South 386 444 37,000  Level Indianapolis Center
Tue 10:50:43 PM 37.2569 -87.4183 174° South 385 443 37,000  Level Indianapolis Center
Tue 10:51:44 PM 37.1500 -87.4036 174° South 384 442 37,000  Level Indianapolis Center
Tue 10:52:45 PM 37.0269 -87.3869 174° South 380 437 37,000  Level Indianapolis Center
Tue 10:53:46 PM 36.9206 -87.3728 174° South 381 438 37,000  Level Indianapolis Center
Tue 10:54:47 PM 36.8150 -87.3589 174° South 379 436 37,000  Level Indianapolis Center
Tue 10:55:48 PM 36.7094 -87.3422 173° South 380 437 37,000  Level Indianapolis Center
Tue 10:56:49 PM 36.6050 -87.3289 174° South 377 434 37,000  Level Indianapolis Center
Tue 10:57:50 PM 36.4986 -87.3142 174° South 381 438 37,000  Level Indianapolis Center
Tue 10:58:50 PM 36.3947 -87.2997 174° South 377 434 37,000  Level Indianapolis Center
Tue 10:59:51 PM 36.2914 -87.2856 174° South 374 430 37,000  Level Indianapolis Center
Tue 11:00:52 PM 36.1886 -87.2722 174° South 371 427 37,000  Level Indianapolis Center
Tue 11:01:53 PM 36.0847 -87.2589 174° South 373 429 37,000  Level Indianapolis Center
Tue 11:02:54 PM 35.9814 -87.2442 173° South 373 429 37,000  Level Indianapolis Center
Tue 11:04:01 PM 35.8597 -87.2283 174° South 373 429 37,000  Level Memphis Center
Tue 11:05:02 PM 35.7561 -87.2139 174° South 372 428 37,000 -492 Level Memphis Center
Tue 11:06:03 PM 35.6539 -87.2006 174° South 369 425 36,000 -984 Descending Memphis Center
Tue 11:07:04 PM 35.5536 -87.1869 174° South 362 417 35,000 -492 Descending Memphis Center
Tue 11:08:05 PM 35.4497 -87.1739 174° South 367 422 35,000  Level Memphis Center
Tue 11:09:05 PM 35.3597 -87.1611 173° South 370 426 35,000 -595 Level Memphis Center
Tue 11:10:06 PM 35.2383 -87.1450 174° South 367 422 33,800 -1,033 Descending Memphis Center
Tue 11:11:07 PM 35.1356 -87.1317 174° South 369 425 32,900 -885 Descending Memphis Center
Tue 11:12:08 PM 35.0294 -87.1181 174° South 378 435 32,000 -934 Descending Memphis Center
Tue 11:13:09 PM 34.9194 -87.1039 174° South 391 450 31,000 -934 Descending Memphis Center
Tue 11:14:10 PM 34.8083 -87.0889 174° South 398 458 30,100 -934 Descending Memphis Center
Tue 11:15:11 PM 34.6961 -87.0731 173° South 402 463 29,100 -1,686 Descending Memphis Center
Tue 11:16:11 PM 34.5792 -87.0586 174° South 415 478 26,700 -2,682 Descending Memphis Center
Tue 11:17:23 PM 34.4361 -87.0408 174° South 419 482 23,200 -2,803 Descending Atlanta Center
Tue 11:18:13 PM 34.3508 -87.0297 174° South 408 470 21,000 -2,649 Descending Memphis Center
Tue 11:19:14 PM 34.2456 -87.0158 174° South 390 449 18,300 -2,508 Descending Memphis Center
Tue 11:20:15 PM 34.1450 -87.0028 174° South 371 427 15,900 -2,459 Descending Memphis Center
Tue 11:21:16 PM 34.0453 -86.9897 174° South 363 418 13,300 -2,557 Descending Memphis Center
Tue 11:22:17 PM 33.9483 -86.9786 175° South 358 412 10,700 -1,686 Descending Memphis Center
Tue 11:23:17 PM 33.8608 -86.9664 173° South 335 386 9,900 -1,333 Descending Memphis Center
Tue 11:24:23 PM 33.7697 -86.9725 183° South 296 341 7,900 -1,881 Descending Atlanta Center
Tue 11:24:24 PM 33.7675 -86.9775 242° Southwest 268 308 7,800 -1,600 Descending Atlanta Center
Tue 11:25:23 PM 33.6944 -86.9825 183° South 284 327 6,300 -1,500 Descending Atlanta Center
Tue 11:25:24 PM 33.6922 -86.9875 242° Southwest 269 310 6,300 -1,548 Level Atlanta Center
Tue 11:26:25 PM 33.6208 -86.9975 187° South 260 299 4,700 -1,664 Descending Atlanta Center
Tue 11:27:23 PM 33.5519 -87.0000 182° South 268 308 3,000 -1,672 Descending Atlanta Center
Tue 11:27:26 PM 33.5500 -87.0025 227° Southwest 250 288 3,000 -500 Level Atlanta Center
Tue 11:28:23 PM 33.4919 -86.9806 163° South 245 282 2,500 -400 Descending Atlanta Center
Tue 11:28:26 PM 33.4856 -86.9853 212° Southwest 205 236 2,600 100 Climbing Atlanta Center
Tue 11:29:23 PM 33.4744 -86.9303 104° East 171 197 2,600  Level Atlanta Center
Tue 11:29:27 PM 33.4703 -86.9325 204° Southwest 176 203 2,600  Level Atlanta Center
Tue 11:30:27 PM 33.4944 -86.8786 62° Northeast 176 203 2,600 -248 Level Atlanta Center
Tue 11:31:28 PM 33.5139 -86.8417 58° Northeast 114 131 2,100 -590 Descending Atlanta Center
Tue 11:32:29 PM 33.5314 -86.8100 56° Northeast 105 121 1,400 -689 Descending Atlanta Center

Login

Don't have an account? Register now (free) for customized features, flight alerts, and more!